Darstellungsparameter: Aktuell verwendete Einstellungen:
Skalierung der Graphiken ... ?
xyx+y,   Skalierungsfaktor:      Skalierung: Modus: x, Faktor: 1
Darstellungszeitraum ... ?
Vom - - bis: - -   Zeitraum: 22.04.2007 - 24.04.2007
Min/Max/Avg-Anzeige ... ?
Zeige MMA aktuell
Zeige MMA Monat
Zeige MMA alles
Zeige --A aktuell
Zeige --A Monat
Zeige --A alles
Keine MMA-Anzeige
MMA:
Average (ber die Originaldaten)
MMA-Basis: 22.04.2007 - 24.04.2007
Quicknavigation für Darstellung... ?
Tage:      1T, 2T, 3T, 5T -1T -2T -3T -5T +1T +2T +3T +5T
Wochen: 1W, 2W, 3W -1W -2W -3W +1W +2W +3W
Monate: 1M, 3M, 6M -1M -3M -6M +1M +3M +6M
Jahre:    1J, 3J, 5J, 10J -1J -3J -5J -10J +1J +3J +5J +10J
Nutze für die Darstellung ... ?
Originaldaten oder Mittelwerte auf ...
Stundenbasis Tagesbasis Wochenbasis
Monatsbasis Jahresbasis      Datenbasis: Original-Daten
Darstellen als:
Statistik (Auto) Statistik J:M      Darstellung:
Zur Graphik,    zurück zur Übersicht aller Sensoren.
 
Tabellarische Datenbersicht: ?
 
Sensor: Nr:Datum:Temp:Abs-Feuchte:Windchill:Wind:
Aussen-T/F 1 22-04-2007 00:10:02 10.4 C 4.05 g/m*3 10.4 C 0 km/h
2 22-04-2007 00:25:02 9.9 C 4.11 g/m*3 9.9 C 0 km/h
3 22-04-2007 00:40:02 9.6 C 4.12 g/m*3 9.6 C 0 km/h
4 22-04-2007 00:55:02 9.5 C 4.28 g/m*3 9.5 C 0 km/h
5 22-04-2007 01:10:02 9.1 C 4.26 g/m*3 9.1 C 0 km/h
6 22-04-2007 01:25:02 8.7 C 4.41 g/m*3 8.7 C 0 km/h
7 22-04-2007 01:40:02 8.4 C 4.33 g/m*3 8.4 C 0 km/h
8 22-04-2007 01:55:03 8.2 C 4.35 g/m*3 8.2 C 0 km/h
9 22-04-2007 02:10:03 7.9 C 4.68 g/m*3 7.9 C 0 km/h
10 22-04-2007 02:25:02 7.5 C 4.64 g/m*3 7.5 C 0 km/h
11 22-04-2007 02:40:02 7.5 C 4.56 g/m*3 7.5 C 0 km/h
12 22-04-2007 02:55:02 7.4 C 4.61 g/m*3 7.4 C 0 km/h
13 22-04-2007 03:10:01 7.3 C 4.5 g/m*3 7.3 C 0 km/h
14 22-04-2007 03:25:01 7.2 C 4.63 g/m*3 7.2 C 0 km/h
15 22-04-2007 03:40:01 7 C 4.65 g/m*3 7 C 0 km/h
16 22-04-2007 03:55:01 7 C 4.73 g/m*3 7 C 0 km/h
17 22-04-2007 04:10:02 6.5 C 4.65 g/m*3 6.5 C 0 km/h
18 22-04-2007 04:25:02 6.3 C 4.74 g/m*3 6.3 C 0 km/h
19 22-04-2007 04:40:02 6.2 C 4.71 g/m*3 6.2 C 0 km/h
20 22-04-2007 04:55:01 5.9 C 4.69 g/m*3 5.9 C 0 km/h
21 22-04-2007 05:10:01 5.8 C 4.8 g/m*3 5.8 C 0 km/h
22 22-04-2007 05:25:02 5.6 C 4.88 g/m*3 5.6 C 0 km/h
23 22-04-2007 05:40:02 5.3 C 4.71 g/m*3 5.3 C 0 km/h
24 22-04-2007 05:55:01 5.2 C 4.75 g/m*3 5.2 C 0 km/h
25 22-04-2007 06:10:02 4.9 C 4.73 g/m*3 4.9 C 0 km/h
Sensor: Nr:Datum:Temp:Abs-Feuchte:Windchill:Wind:
Aussen-T/F 26 22-04-2007 06:25:01 4.8 C 4.76 g/m*3 4.8 C 0 km/h
27 22-04-2007 06:40:01 4.7 C 4.73 g/m*3 4.7 C 0 km/h
28 22-04-2007 06:55:01 4.6 C 4.76 g/m*3 4.6 C 0 km/h
29 22-04-2007 07:10:01 4.6 C 4.83 g/m*3 4.6 C 0 km/h
30 22-04-2007 07:25:02 4.7 C 4.8 g/m*3 4.7 C 0 km/h
31 22-04-2007 07:40:01 4.8 C 4.83 g/m*3 4.8 C 0 km/h
32 22-04-2007 07:55:02 5 C 4.89 g/m*3 5 C 0 km/h
33 22-04-2007 08:10:01 5.3 C 4.92 g/m*3 5.3 C 0 km/h
34 22-04-2007 08:25:01 5.7 C 5.05 g/m*3 5.7 C 0 km/h
35 22-04-2007 08:40:02 6.1 C 5.11 g/m*3 6.1 C 0 km/h
36 22-04-2007 08:55:02 6.5 C 5.1 g/m*3 6.5 C 0 km/h
37 22-04-2007 09:10:02 7 C 5.11 g/m*3 7 C 0 km/h
38 22-04-2007 09:25:01 7.8 C 5.14 g/m*3 7.8 C 0 km/h
39 22-04-2007 09:40:02 8.6 C 5.07 g/m*3 8.6 C 0 km/h
40 22-04-2007 09:55:01 9.7 C 5.07 g/m*3 9.7 C 0 km/h
41 22-04-2007 10:10:02 10.8 C 4.94 g/m*3 10.8 C 0 km/h
42 22-04-2007 10:25:01 11.9 C 4.98 g/m*3 11.9 C 0 km/h
43 22-04-2007 10:40:01 12.9 C 5.07 g/m*3 12.9 C 0 km/h
44 22-04-2007 10:55:01 13.6 C 4.83 g/m*3 13.6 C 0 km/h
45 22-04-2007 11:10:01 14.2 C 4.64 g/m*3 14.2 C 0 km/h
46 22-04-2007 11:25:02 14.9 C 4.59 g/m*3 14.9 C 0 km/h
47 22-04-2007 11:40:01 16.1 C 4.66 g/m*3 16.1 C 0 km/h
48 22-04-2007 11:55:02 17.1 C 4.66 g/m*3 17.1 C 0 km/h
49 22-04-2007 12:10:02 17.9 C 4.58 g/m*3 17.9 C 0 km/h
50 22-04-2007 12:25:01 18.6 C 4.3 g/m*3 18.6 C 0 km/h
Sensor: Nr:Datum:Temp:Abs-Feuchte:Windchill:Wind:
Aussen-T/F 51 22-04-2007 12:40:02 18.8 C 4.19 g/m*3 18.8 C 0 km/h
52 22-04-2007 12:55:01 19.3 C 4.15 g/m*3 19.3 C 0 km/h
53 22-04-2007 13:10:02 20.5 C 4.27 g/m*3 20.5 C 0 km/h
54 22-04-2007 13:25:01 21.6 C 3.98 g/m*3 21.6 C 0 km/h
55 22-04-2007 13:40:01 22.3 C 4.15 g/m*3 22.3 C 0 km/h
56 22-04-2007 13:55:01 22.8 C 4.27 g/m*3 22.8 C 0 km/h
57 22-04-2007 14:10:01 23.4 C 4.21 g/m*3 23.4 C 0 km/h
58 22-04-2007 14:25:02 24.4 C 4.45 g/m*3 24.4 C 0 km/h
59 22-04-2007 14:40:01 25.3 C 4.68 g/m*3 25.3 C 0 km/h
60 22-04-2007 14:55:02 25.7 C 4.79 g/m*3 25.7 C 0 km/h
61 22-04-2007 15:10:01 26.3 C 4.95 g/m*3 26.3 C 0 km/h
62 22-04-2007 15:25:02 26.5 C 5.01 g/m*3 26.5 C 0 km/h
63 22-04-2007 15:40:02 27.9 C 5.41 g/m*3 27.9 C 0 km/h
64 22-04-2007 15:55:02 28.7 C 5.65 g/m*3 28.7 C 0 km/h
65 22-04-2007 16:10:02 29.5 C 5.9 g/m*3 29.5 C 0 km/h
66 22-04-2007 16:25:01 28.8 C 5.68 g/m*3 28.8 C 0 km/h
67 22-04-2007 16:40:02 28.8 C 5.68 g/m*3 28.8 C 0 km/h
68 22-04-2007 16:55:01 28.7 C 5.65 g/m*3 28.7 C 0 km/h
69 22-04-2007 17:10:02 29 C 5.74 g/m*3 29 C 0 km/h
70 22-04-2007 17:25:01 29.7 C 5.97 g/m*3 29.7 C 0 km/h
71 22-04-2007 17:40:01 29.5 C 5.9 g/m*3 29.5 C 0 km/h
72 22-04-2007 17:55:01 29.2 C 5.81 g/m*3 29.2 C 0 km/h
73 22-04-2007 18:10:01 29.9 C 6.03 g/m*3 29.9 C 0 km/h
74 22-04-2007 18:25:02 29.2 C 5.81 g/m*3 29.2 C 0 km/h
75 22-04-2007 18:40:01 28.3 C 5.53 g/m*3 28.3 C 0 km/h
Sensor: Nr:Datum:Temp:Abs-Feuchte:Windchill:Wind:
Aussen-T/F 76 22-04-2007 18:55:02 29.2 C 5.81 g/m*3 29.2 C 0 km/h
77 22-04-2007 19:10:01 28.7 C 5.65 g/m*3 28.7 C 0 km/h
78 22-04-2007 19:25:01 28.6 C 5.62 g/m*3 28.6 C 0 km/h
79 22-04-2007 19:40:02 27.6 C 5.32 g/m*3 27.6 C 0 km/h
80 22-04-2007 19:55:01 25.8 C 4.82 g/m*3 25.8 C 0 km/h
81 22-04-2007 20:10:02 24 C 4.35 g/m*3 24 C 0 km/h
82 22-04-2007 20:25:01 21.9 C 4.25 g/m*3 21.9 C 0 km/h
83 22-04-2007 20:40:02 20.8 C 4.53 g/m*3 20.8 C 0 km/h
84 22-04-2007 20:55:01 20.2 C 4.55 g/m*3 20.2 C 0 km/h
85 22-04-2007 21:10:02 19.5 C 4.53 g/m*3 19.5 C 0 km/h
86 22-04-2007 21:25:02 18.7 C 4.64 g/m*3 18.7 C 0 km/h
87 22-04-2007 21:40:01 18.5 C 4.75 g/m*3 18.5 C 0 km/h
88 22-04-2007 21:55:02 17.8 C 4.71 g/m*3 17.8 C 0 km/h
89 22-04-2007 22:10:01 17.4 C 4.89 g/m*3 17.4 C 0 km/h
90 22-04-2007 22:25:02 16.9 C 4.89 g/m*3 16.9 C 0 km/h
91 22-04-2007 22:40:02 16.4 C 4.89 g/m*3 16.4 C 0 km/h
92 22-04-2007 22:55:02 16 C 4.77 g/m*3 16 C 0 km/h
93 22-04-2007 23:10:01 15.5 C 4.89 g/m*3 15.5 C 0 km/h
94 22-04-2007 23:25:01 14.9 C 5.23 g/m*3 14.9 C 0 km/h
95 22-04-2007 23:40:02 14.5 C 5.47 g/m*3 14.5 C 0 km/h
96 22-04-2007 23:55:01 13.9 C 5.27 g/m*3 13.9 C 0 km/h
97 23-04-2007 00:10:02 13.8 C 5.36 g/m*3 13.8 C 0 km/h
98 23-04-2007 00:25:02 13 C 5.22 g/m*3 13 C 0 km/h
99 23-04-2007 00:40:02 13.1 C 5.25 g/m*3 13.1 C 0 km/h
100 23-04-2007 00:55:01 12.9 C 5.3 g/m*3 12.9 C 0 km/h
Sensor: Nr:Datum:Temp:Abs-Feuchte:Windchill:Wind:
Aussen-T/F 101 23-04-2007 01:10:02 12.7 C 5.34 g/m*3 12.7 C 0 km/h
102 23-04-2007 01:25:02 12.3 C 5.32 g/m*3 12.3 C 0 km/h
103 23-04-2007 01:40:02 12 C 5.44 g/m*3 12 C 0 km/h
104 23-04-2007 01:55:02 11.9 C 5.51 g/m*3 11.9 C 0 km/h
105 23-04-2007 02:10:02 11.4 C 5.65 g/m*3 11.4 C 0 km/h
106 23-04-2007 02:25:01 11.1 C 5.64 g/m*3 11.1 C 0 km/h
107 23-04-2007 02:40:02 11 C 5.61 g/m*3 11 C 0 km/h
108 23-04-2007 02:55:01 10.7 C 5.7 g/m*3 10.7 C 0 km/h
109 23-04-2007 03:10:02 10.6 C 5.76 g/m*3 10.6 C 0 km/h
110 23-04-2007 03:25:02 10.5 C 5.72 g/m*3 10.5 C 0 km/h
111 23-04-2007 03:40:02 10.1 C 5.67 g/m*3 10.1 C 0 km/h
112 23-04-2007 03:55:02 9.7 C 5.81 g/m*3 9.7 C 0 km/h
113 23-04-2007 04:10:01 9.3 C 5.75 g/m*3 9.3 C 0 km/h
114 23-04-2007 04:25:01 9.3 C 5.75 g/m*3 9.3 C 0 km/h
115 23-04-2007 04:40:02 9.1 C 5.77 g/m*3 9.1 C 0 km/h
116 23-04-2007 04:55:01 8.7 C 5.79 g/m*3 8.7 C 0 km/h
117 23-04-2007 05:10:01 8.7 C 5.88 g/m*3 8.7 C 0 km/h
118 23-04-2007 05:25:02 8.5 C 5.89 g/m*3 8.5 C 0 km/h
119 23-04-2007 05:40:02 8.3 C 5.82 g/m*3 8.3 C 0 km/h
120 23-04-2007 05:55:02 8.1 C 5.74 g/m*3 8.1 C 0 km/h
121 23-04-2007 06:10:01 8.1 C 5.82 g/m*3 8.1 C 0 km/h
122 23-04-2007 06:25:02 7.9 C 5.83 g/m*3 7.9 C 0 km/h
123 23-04-2007 06:40:01 7.6 C 5.88 g/m*3 7.6 C 0 km/h
124 23-04-2007 06:55:02 7.5 C 5.92 g/m*3 7.5 C 0 km/h
125 23-04-2007 07:10:02 7.5 C 6 g/m*3 7.5 C 0 km/h
Sensor: Nr:Datum:Temp:Abs-Feuchte:Windchill:Wind:
Aussen-T/F 126 23-04-2007 07:25:02 7.3 C 6 g/m*3 7.3 C 0 km/h
127 23-04-2007 07:40:01 7.5 C 6 g/m*3 7.5 C 0 km/h
128 23-04-2007 07:55:02 7.9 C 6.16 g/m*3 7.9 C 0 km/h
129 23-04-2007 08:10:02 8.2 C 6.03 g/m*3 8.2 C 0 km/h
130 23-04-2007 08:25:01 8.6 C 6.19 g/m*3 8.6 C 0 km/h
131 23-04-2007 08:40:02 9.2 C 5.98 g/m*3 9.2 C 0 km/h
132 23-04-2007 08:55:01 9.5 C 6.19 g/m*3 9.5 C 0 km/h
133 23-04-2007 09:10:02 9.9 C 6.16 g/m*3 9.9 C 0 km/h
134 23-04-2007 09:25:01 10.5 C 6.21 g/m*3 10.5 C 0 km/h
135 23-04-2007 09:40:01 11.3 C 6.32 g/m*3 11.3 C 0 km/h
136 23-04-2007 09:55:01 12.3 C 6.52 g/m*3 12.3 C 0 km/h
137 23-04-2007 10:10:01 13.2 C 6.66 g/m*3 13.2 C 0 km/h
138 23-04-2007 10:25:02 14.2 C 6.72 g/m*3 14.2 C 0 km/h
139 23-04-2007 10:40:01 15.3 C 6.4 g/m*3 15.3 C 0 km/h
140 23-04-2007 10:55:02 16.1 C 6.17 g/m*3 16.1 C 0 km/h
141 23-04-2007 11:10:01 16.9 C 6.18 g/m*3 16.9 C 0 km/h
142 23-04-2007 11:25:02 17.9 C 5.8 g/m*3 17.9 C 0 km/h
143 23-04-2007 11:40:02 18.8 C 5.8 g/m*3 18.8 C 0 km/h
144 23-04-2007 11:55:02 19.5 C 4.7 g/m*3 19.5 C 0 km/h
145 23-04-2007 12:10:02 20.5 C 4.98 g/m*3 20.5 C 0 km/h
146 23-04-2007 12:25:01 21.8 C 4.8 g/m*3 21.8 C 0 km/h
147 23-04-2007 12:40:02 21.9 C 4.82 g/m*3 21.9 C 0 km/h
148 23-04-2007 12:55:01 22.6 C 5.02 g/m*3 22.6 C 0 km/h
149 23-04-2007 13:10:02 23.4 C 5.26 g/m*3 23.4 C 0 km/h
150 23-04-2007 13:25:01 24.4 C 5.34 g/m*3 24.4 C 0 km/h
Sensor: Nr:Datum:Temp:Abs-Feuchte:Windchill:Wind:
Aussen-T/F 151 23-04-2007 13:40:01 24.8 C 5.24 g/m*3 24.8 C 0 km/h
152 23-04-2007 13:55:01 25 C 4.83 g/m*3 25 C 0 km/h
153 23-04-2007 14:10:01 25.3 C 4.92 g/m*3 25.3 C 0 km/h
154 23-04-2007 14:25:02 25.9 C 4.84 g/m*3 25.9 C 0 km/h
155 23-04-2007 14:40:01 26.7 C 5.06 g/m*3 26.7 C 0 km/h
156 23-04-2007 14:55:02 26.9 C 5.12 g/m*3 26.9 C 0 km/h
157 23-04-2007 15:10:01 27.7 C 5.35 g/m*3 27.7 C 0 km/h
158 23-04-2007 15:25:02 28.1 C 5.47 g/m*3 28.1 C 0 km/h
159 23-04-2007 15:40:02 27.9 C 5.41 g/m*3 27.9 C 0 km/h
160 23-04-2007 15:55:02 27.8 C 5.38 g/m*3 27.8 C 0 km/h
161 23-04-2007 16:10:01 27.6 C 5.32 g/m*3 27.6 C 0 km/h
162 23-04-2007 16:25:01 28.2 C 5.5 g/m*3 28.2 C 0 km/h
163 23-04-2007 16:40:02 28.1 C 5.47 g/m*3 28.1 C 0 km/h
164 23-04-2007 16:55:01 28.8 C 5.68 g/m*3 28.8 C 0 km/h
165 23-04-2007 17:10:02 27.8 C 5.38 g/m*3 27.8 C 0 km/h
166 23-04-2007 17:25:01 28.9 C 5.71 g/m*3 28.9 C 0 km/h
167 23-04-2007 17:40:01 29.3 C 5.84 g/m*3 29.3 C 0 km/h
168 23-04-2007 17:55:01 28.3 C 5.53 g/m*3 28.3 C 0 km/h
169 23-04-2007 18:10:01 27.1 C 5.18 g/m*3 27.1 C 0 km/h
170 23-04-2007 18:25:02 26.6 C 5.03 g/m*3 26.6 C 0 km/h
171 23-04-2007 18:40:01 26.1 C 5.63 g/m*3 26.1 C 0 km/h
172 23-04-2007 18:55:02 25.1 C 6.02 g/m*3 25.1 C 0 km/h
173 23-04-2007 19:10:01 24.3 C 6.2 g/m*3 24.3 C 0 km/h
174 23-04-2007 19:25:01 23.7 C 6.42 g/m*3 23.7 C 0 km/h
175 23-04-2007 19:40:02 23.1 C 6.2 g/m*3 23.1 C 0 km/h
Sensor: Nr:Datum:Temp:Abs-Feuchte:Windchill:Wind:
Aussen-T/F 176 23-04-2007 19:55:01 22.6 C 6.23 g/m*3 22.6 C 0 km/h
177 23-04-2007 20:10:02 22 C 6.02 g/m*3 22 C 0 km/h
178 23-04-2007 20:25:01 21.9 C 6.18 g/m*3 21.9 C 0 km/h
179 23-04-2007 20:40:01 21.7 C 6.29 g/m*3 21.7 C 0 km/h
180 23-04-2007 20:55:01 21.1 C 6.08 g/m*3 21.1 C 0 km/h
181 23-04-2007 21:10:02 20.9 C 6.37 g/m*3 20.9 C 0 km/h
182 23-04-2007 21:25:02 21 C 6.23 g/m*3 21 C 0 km/h
183 23-04-2007 21:40:02 20.4 C 6.37 g/m*3 20.4 C 0 km/h
184 23-04-2007 21:55:01 20.1 C 6.26 g/m*3 20.1 C 0 km/h
185 23-04-2007 22:10:01 20 C 6.39 g/m*3 20 C 0 km/h
186 23-04-2007 22:25:02 19.7 C 6.45 g/m*3 19.7 C 0 km/h
187 23-04-2007 22:40:01 19.4 C 6.67 g/m*3 19.4 C 0 km/h
188 23-04-2007 22:55:02 19.1 C 6.56 g/m*3 19.1 C 0 km/h
189 23-04-2007 23:10:01 19 C 6.68 g/m*3 19 C 0 km/h
190 23-04-2007 23:25:01 19 C 6.68 g/m*3 19 C 0 km/h
191 23-04-2007 23:40:02 18.7 C 6.88 g/m*3 18.7 C 0 km/h
192 23-04-2007 23:55:01 18.3 C 7.04 g/m*3 18.3 C 0 km/h
193 24-04-2007 00:10:02 18.2 C 7.15 g/m*3 18.2 C 0 km/h
194 24-04-2007 00:25:02 18.1 C 7.26 g/m*3 18.1 C 0 km/h
195 24-04-2007 00:40:02 18 C 7.37 g/m*3 18 C 0 km/h
196 24-04-2007 00:55:02 17.8 C 7.44 g/m*3 17.8 C 0 km/h
197 24-04-2007 01:10:01 17.5 C 7.31 g/m*3 17.5 C 0 km/h
198 24-04-2007 01:25:01 17.3 C 7.51 g/m*3 17.3 C 0 km/h
199 24-04-2007 01:40:02 17 C 7.38 g/m*3 17 C 0 km/h
200 24-04-2007 01:55:01 16.6 C 7.63 g/m*3 16.6 C 0 km/h
Sensor: Nr:Datum:Temp:Abs-Feuchte:Windchill:Wind:
Aussen-T/F 201 24-04-2007 02:10:01 16.4 C 7.82 g/m*3 16.4 C 0 km/h
202 24-04-2007 02:25:02 16 C 7.9 g/m*3 16 C 0 km/h
203 24-04-2007 02:40:02 15.8 C 8.08 g/m*3 15.8 C 0 km/h
204 24-04-2007 02:55:01 15.9 C 8.13 g/m*3 15.9 C 0 km/h
205 24-04-2007 03:10:01 15.7 C 8.16 g/m*3 15.7 C 0 km/h
206 24-04-2007 03:25:02 15.7 C 8.16 g/m*3 15.7 C 0 km/h
207 24-04-2007 03:40:02 15.7 C 8.16 g/m*3 15.7 C 0 km/h
208 24-04-2007 03:55:02 15.6 C 8.25 g/m*3 15.6 C 0 km/h
209 24-04-2007 04:10:01 15.4 C 8.15 g/m*3 15.4 C 0 km/h
210 24-04-2007 04:25:01 15.5 C 8.2 g/m*3 15.5 C 0 km/h
211 24-04-2007 04:40:02 15.4 C 8.28 g/m*3 15.4 C 0 km/h
212 24-04-2007 04:55:02 15.3 C 8.23 g/m*3 15.3 C 0 km/h
213 24-04-2007 05:10:02 15.2 C 8.18 g/m*3 15.2 C 0 km/h
214 24-04-2007 05:25:02 15.2 C 8.18 g/m*3 15.2 C 0 km/h
215 24-04-2007 05:40:02 15.1 C 8.26 g/m*3 15.1 C 0 km/h
216 24-04-2007 05:55:02 15.1 C 8.26 g/m*3 15.1 C 0 km/h
217 24-04-2007 06:10:01 14.8 C 8.36 g/m*3 14.8 C 0 km/h
218 24-04-2007 06:25:01 14.4 C 8.28 g/m*3 14.4 C 0 km/h
219 24-04-2007 06:40:02 14.2 C 8.3 g/m*3 14.2 C 0 km/h
220 24-04-2007 06:55:01 14.2 C 8.43 g/m*3 14.2 C 0 km/h
221 24-04-2007 07:10:02 14.2 C 8.43 g/m*3 14.2 C 0 km/h
222 24-04-2007 07:25:01 14.2 C 8.55 g/m*3 14.2 C 0 km/h
223 24-04-2007 07:40:01 14.1 C 8.5 g/m*3 14.1 C 0 km/h
224 24-04-2007 07:55:01 14.2 C 8.55 g/m*3 14.2 C 0 km/h
225 24-04-2007 08:10:01 14.9 C 8.67 g/m*3 14.9 C 0 km/h
Sensor: Nr:Datum:Temp:Abs-Feuchte:Windchill:Wind:
Aussen-T/F 226 24-04-2007 08:25:02 15.5 C 8.59 g/m*3 15.5 C 0 km/h
227 24-04-2007 08:40:01 16 C 8.31 g/m*3 16 C 0 km/h
228 24-04-2007 08:55:02 16.5 C 8.28 g/m*3 16.5 C 0 km/h
229 24-04-2007 09:10:01 16.1 C 8.5 g/m*3 16.1 C 0 km/h
230 24-04-2007 09:25:01 16.2 C 8.55 g/m*3 16.2 C 0 km/h
231 24-04-2007 09:40:02 16.4 C 8.79 g/m*3 16.4 C 0 km/h
232 24-04-2007 09:55:01 16.7 C 8.81 g/m*3 16.7 C 0 km/h
233 24-04-2007 10:10:02 17.3 C 8.54 g/m*3 17.3 C 0 km/h
234 24-04-2007 10:25:01 18 C 8.45 g/m*3 18 C 0 km/h
235 24-04-2007 10:40:02 18.7 C 7.84 g/m*3 18.7 C 0 km/h
236 24-04-2007 10:55:01 19.6 C 7.93 g/m*3 19.6 C 0 km/h
237 24-04-2007 11:10:02 20.4 C 7.61 g/m*3 20.4 C 0 km/h
238 24-04-2007 11:25:01 21.2 C 7.6 g/m*3 21.2 C 0 km/h
239 24-04-2007 11:40:01 22 C 7.18 g/m*3 22 C 0 km/h
240 24-04-2007 11:55:01 22.7 C 6.47 g/m*3 22.7 C 0 km/h
241 24-04-2007 12:10:01 23.3 C 6.06 g/m*3 23.3 C 0 km/h
242 24-04-2007 12:25:02 24.1 C 5.91 g/m*3 24.1 C 0 km/h
243 24-04-2007 12:40:01 24.2 C 6.38 g/m*3 24.2 C 0 km/h
244 24-04-2007 12:55:02 25.1 C 5.79 g/m*3 25.1 C 0 km/h
245 24-04-2007 13:10:01 26 C 6.57 g/m*3 26 C 0 km/h
246 24-04-2007 13:25:01 26.6 C 6.54 g/m*3 26.6 C 0 km/h
247 24-04-2007 13:40:02 27 C 6.43 g/m*3 27 C 0 km/h
248 24-04-2007 13:55:01 27.1 C 6.73 g/m*3 27.1 C 0 km/h
249 24-04-2007 14:10:02 27.1 C 6.47 g/m*3 27.1 C 0 km/h
250 24-04-2007 14:25:01 27.7 C 6.69 g/m*3 27.7 C 0 km/h
Sensor: Nr:Datum:Temp:Abs-Feuchte:Windchill:Wind:
Aussen-T/F 251 24-04-2007 14:40:01 28.3 C 6.63 g/m*3 28.3 C 0 km/h
252 24-04-2007 14:55:01 29 C 6.61 g/m*3 29 C 0 km/h
253 24-04-2007 15:10:01 29.4 C 6.75 g/m*3 29.4 C 0 km/h
254 24-04-2007 15:25:02 29 C 6.03 g/m*3 29 C 0 km/h
255 24-04-2007 15:40:01 29.1 C 6.06 g/m*3 29.1 C 0 km/h
256 24-04-2007 15:55:02 29 C 6.03 g/m*3 29 C 0 km/h
257 24-04-2007 16:10:01 29.7 C 6.56 g/m*3 29.7 C 0 km/h
258 24-04-2007 16:25:02 29.5 C 6.2 g/m*3 29.5 C 0 km/h
259 24-04-2007 16:40:02 29.8 C 6.3 g/m*3 29.8 C 0 km/h
260 24-04-2007 16:55:02 29.7 C 6.56 g/m*3 29.7 C 0 km/h
261 24-04-2007 17:10:02 29.5 C 6.49 g/m*3 29.5 C 0 km/h
262 24-04-2007 17:25:01 29.3 C 6.13 g/m*3 29.3 C 0 km/h
263 24-04-2007 17:40:02 28.8 C 5.97 g/m*3 28.8 C 0 km/h
264 24-04-2007 17:55:01 29 C 6.03 g/m*3 29 C 0 km/h
265 24-04-2007 18:10:02 28.6 C 6.18 g/m*3 28.6 C 0 km/h
266 24-04-2007 18:25:01 28.2 C 6.32 g/m*3 28.2 C 0 km/h
267 24-04-2007 18:40:01 27.6 C 7.18 g/m*3 27.6 C 0 km/h
268 24-04-2007 18:55:01 26.7 C 7.59 g/m*3 26.7 C 0 km/h
269 24-04-2007 19:10:01 26.1 C 7.34 g/m*3 26.1 C 0 km/h
270 24-04-2007 19:25:02 25.3 C 7.49 g/m*3 25.3 C 0 km/h
271 24-04-2007 19:40:01 24.8 C 7.51 g/m*3 24.8 C 0 km/h
272 24-04-2007 19:55:02 24.5 C 7.39 g/m*3 24.5 C 0 km/h
273 24-04-2007 20:10:01 24.1 C 7.44 g/m*3 24.1 C 0 km/h
274 24-04-2007 20:25:01 23.4 C 7.57 g/m*3 23.4 C 0 km/h
275 24-04-2007 20:40:02 22.9 C 7.77 g/m*3 22.9 C 0 km/h
Sensor: Nr:Datum:Temp:Abs-Feuchte:Windchill:Wind:
Aussen-T/F 276 24-04-2007 20:55:01 22.3 C 7.5 g/m*3 22.3 C 0 km/h
277 24-04-2007 21:10:01 21.4 C 7.69 g/m*3 21.4 C 0 km/h
278 24-04-2007 21:25:02 21 C 7.69 g/m*3 21 C 0 km/h
279 24-04-2007 21:40:01 20.9 C 7.83 g/m*3 20.9 C 0 km/h
280 24-04-2007 21:55:02 20.8 C 7.79 g/m*3 20.8 C 0 km/h
281 24-04-2007 22:11:01 20.6 C 7.87 g/m*3 20.6 C 0 km/h
282 24-04-2007 22:23:02 20.5 C 8.01 g/m*3 20.5 C 0 km/h
283 24-04-2007 22:35:02 20.2 C 7.87 g/m*3 20.2 C 0 km/h
284 24-04-2007 22:47:02 19.9 C 7.9 g/m*3 19.9 C 0 km/h
285 24-04-2007 22:59:02 19.7 C 8.15 g/m*3 19.7 C 0 km/h
286 24-04-2007 23:11:02 19.3 C 7.96 g/m*3 19.3 C 0 km/h
287 24-04-2007 23:23:01 19.1 C 8.03 g/m*3 19.1 C 0 km/h
288 24-04-2007 23:35:01 18.9 C 8.1 g/m*3 18.9 C 0 km/h
289 24-04-2007 23:47:01 18.7 C 8.01 g/m*3 18.7 C 0 km/h
290 24-04-2007 23:59:01 18.6 C 8.12 g/m*3 18.6 C 0 km/h

Legende:
   Min
   Max


Maximal/Minimal-Werte vom 22.04.2007 - 24.04.2007

Sensor Min Max Avg
Temp
(Aussen-T/F)
4.6 °C
22-04-2007  06:55:01
29.9 °C
22-04-2007  18:10:01
18.02 °C
Abs-Feuchte
(Aussen-T/F)
3.98 g/m*3
22-04-2007  13:25:01
8.81 g/m*3
24-04-2007  09:55:01
6.05 g/m*3
Windchill
(Aussen-T/F)
4.6 C
22-04-2007  06:55:01
29.9 C
22-04-2007  18:10:01
17.95 C

Die Daten stammen von einer Davis Vantage Pro 2 Wetter-Station und werden unter Linux mit der Software wview2wettercgi und aufbereitet. Alle Angaben erfolgen ohne Gewähr für ihre Vollständigkeit oder Richtigkeit.
Kontakt: Rainer Krienke krienke@uni-koblenz.de . Meine Webseiten an der Uni Koblenz oder privat.
Version: $Revision: 0.78 $